Weather reports worldwide

Advertisment
Chamonix, France (7469): temperature & dewpoint: 11.07.2018 00:00:00 - 17.07.2018 00:00:00 (CEST)Chamonix, France (7469): wind speed & gusts: 11.07.2018 00:00:00 - 17.07.2018 00:00:00 (CEST)Chamonix, France (7469): wind direction: 11.07.2018 00:00:00 - 17.07.2018 00:00:00 (CEST)Chamonix, France (7469): precipitation: 11.07.2018 00:00:00 - 17.07.2018 00:00:00 (CEST)
Date & Time tt [°C] td [°C] ff [km/h] ff [kn] fx [km/h] fx [kn] dd rr [mm]
17.07.2018 00:00:00 - - - - - - - -
16.07.2018 23:00:00 12,7 10,6 0 0 4 2 N 0,0
16.07.2018 22:00:00 13,8 11,0 0 0 5 3 N 0,0
16.07.2018 21:00:00 15,7 10,9 2 1 9 5 NNE 0,0
16.07.2018 20:00:00 18,4 9,2 4 2 18 10 NNE -
16.07.2018 19:00:00 21,0 10,2 5 3 28 15 E 0,0
16.07.2018 18:00:00 22,8 13,0 4 2 18 10 NW 0,0
16.07.2018 17:00:00 22,3 9,5 4 2 16 9 NE 0,0
16.07.2018 16:00:00 23,3 14,0 4 2 26 14 WNW 0,0
16.07.2018 15:00:00 25,1 8,1 8 4 22 12 WSW 0,0
16.07.2018 14:00:00 25,7 8,7 8 4 18 10 SSW -
16.07.2018 13:00:00 24,4 8,8 8 4 18 10 WSW 0,0
16.07.2018 12:00:00 24,2 8,6 5 3 13 7 SSW 0,0
16.07.2018 11:00:00 22,1 9,9 0 0 5 3 N 0,0
16.07.2018 10:00:00 15,6 11,4 0 0 5 3 N 0,0
16.07.2018 09:00:00 10,9 10,7 0 0 4 2 N 0,0
16.07.2018 08:00:00 8,2 7,9 0 0 4 2 N -
16.07.2018 07:00:00 7,6 7,3 0 0 5 3 N 0,0
16.07.2018 06:00:00 7,7 7,3 0 0 9 5 N 0,0
16.07.2018 05:00:00 8,1 7,7 0 0 4 2 N 0,0
16.07.2018 04:00:00 8,6 8,0 0 0 5 3 N 0,0
16.07.2018 03:00:00 9,5 8,9 0 0 5 3 N 0,0
16.07.2018 02:00:00 10,5 9,9 2 1 9 5 NE -
16.07.2018 01:00:00 11,3 10,7 0 0 4 2 N 0,0
16.07.2018 00:00:00 12,0 11,2 0 0 8 4 N 0,0
15.07.2018 23:00:00 12,6 11,7 0 0 5 3 N 0,0
15.07.2018 22:00:00 13,1 11,3 2 1 13 7 NE 0,2
15.07.2018 21:00:00 15,3 11,9 5 3 29 16 W 0,4
15.07.2018 20:00:00 20,1 8,1 8 4 41 22 WSW -
15.07.2018 19:00:00 21,0 13,7 4 2 11 6 SSW 0,0
15.07.2018 18:00:00 22,9 12,5 4 2 13 7 WSW 0,0
15.07.2018 17:00:00 24,6 11,5 4 2 11 6 W 0,0
15.07.2018 16:00:00 23,5 13,1 9 5 24 13 WSW 0,0
15.07.2018 15:00:00 23,3 14,8 9 5 21 11 WSW 0,0
15.07.2018 14:00:00 21,5 13,9 5 3 15 8 SW -
15.07.2018 13:00:00 22,2 15,8 4 2 13 7 E 0,0
15.07.2018 12:00:00 18,8 14,5 0 0 9 5 N 0,0
15.07.2018 11:00:00 19,0 14,7 0 0 5 3 N 0,0
15.07.2018 10:00:00 15,5 15,2 0 0 4 2 N 0,0
15.07.2018 09:00:00 13,7 13,5 0 0 4 2 N 0,0
15.07.2018 08:00:00 11,5 11,3 0 0 5 3 N -
15.07.2018 07:00:00 10,4 10,1 0 0 2 1 N 0,0
15.07.2018 06:00:00 10,8 10,5 0 0 4 2 N 0,0
15.07.2018 05:00:00 11,3 11,0 2 1 4 2 N 0,0
15.07.2018 04:00:00 11,4 11,1 0 0 4 2 N 0,0
15.07.2018 03:00:00 11,7 11,4 0 0 2 1 N 0,0
15.07.2018 02:00:00 11,8 11,3 0 0 2 1 N -
15.07.2018 01:00:00 12,0 11,4 0 0 4 2 N 0,0
15.07.2018 00:00:00 12,5 11,7 2 1 8 4 ENE 0,0
14.07.2018 23:00:00 13,7 12,8 4 2 13 7 N 2,0
14.07.2018 22:00:00 15,4 13,6 4 2 34 18 NNE 12,0
14.07.2018 21:00:00 19,5 11,0 8 4 28 15 E 0,0
14.07.2018 20:00:00 21,5 11,2 4 2 24 13 ENE -
14.07.2018 19:00:00 24,4 7,5 9 5 26 14 WSW 0,0
14.07.2018 18:00:00 26,6 9,4 8 4 18 10 SW 0,0
14.07.2018 17:00:00 24,4 13,0 4 2 9 5 WSW 0,0
14.07.2018 16:00:00 24,6 11,9 2 1 13 7 WSW 0,0
14.07.2018 15:00:00 21,7 11,7 5 3 41 22 SW 0,0
14.07.2018 14:00:00 25,2 10,6 5 3 21 11 S -
14.07.2018 13:00:00 27,0 10,2 4 2 22 12 SSE 0,0
14.07.2018 12:00:00 25,4 10,8 4 2 21 11 S 0,0
14.07.2018 11:00:00 25,1 11,3 5 3 16 9 S 0,0
14.07.2018 10:00:00 20,4 12,4 0 0 5 3 N 0,0
14.07.2018 09:00:00 14,6 12,1 0 0 5 3 N 0,0
14.07.2018 08:00:00 12,0 10,6 0 0 5 3 N -
14.07.2018 07:00:00 11,9 10,1 0 0 4 2 N 0,0
14.07.2018 06:00:00 11,6 9,7 0 0 5 3 N 0,0
14.07.2018 05:00:00 11,9 9,8 0 0 4 2 N 0,0
14.07.2018 04:00:00 12,3 9,8 0 0 4 2 N 0,0
14.07.2018 03:00:00 12,6 10,0 0 0 5 3 N 0,0
14.07.2018 02:00:00 13,5 10,3 0 0 5 3 N -
14.07.2018 01:00:00 14,0 10,2 0 0 4 2 N 0,0
14.07.2018 00:00:00 14,4 10,0 2 1 8 4 NNW 0,0
13.07.2018 23:00:00 15,6 10,6 0 0 4 2 N 0,0
13.07.2018 22:00:00 16,4 9,8 0 0 4 2 N 0,0
13.07.2018 21:00:00 19,5 9,7 0 0 9 5 N 0,0
13.07.2018 20:00:00 23,2 9,6 2 1 16 9 WSW -
13.07.2018 19:00:00 24,6 6,3 5 3 22 12 SW 0,0
13.07.2018 18:00:00 26,6 6,1 8 4 28 15 SW 0,0
13.07.2018 17:00:00 26,5 3,0 8 4 28 15 SW 0,0
13.07.2018 16:00:00 28,1 9,4 8 4 24 13 S 0,0
13.07.2018 15:00:00 27,3 9,2 8 4 24 13 SW 0,0
13.07.2018 14:00:00 26,9 7,4 8 4 24 13 S -
13.07.2018 13:00:00 25,7 7,3 8 4 22 12 SSW 0,0
13.07.2018 12:00:00 24,3 7,0 4 2 18 10 SSE 0,0
13.07.2018 11:00:00 22,1 8,6 4 2 8 4 SSW 0,0
13.07.2018 10:00:00 16,2 9,6 0 0 4 2 N 0,0
13.07.2018 09:00:00 10,8 10,5 0 0 5 3 N 0,0
13.07.2018 08:00:00 7,4 7,0 0 0 5 3 N -
13.07.2018 07:00:00 7,2 6,8 2 1 5 3 ESE 0,0
13.07.2018 06:00:00 7,1 6,5 0 0 4 2 N 0,0
13.07.2018 05:00:00 7,3 6,6 0 0 4 2 N 0,0
13.07.2018 04:00:00 7,8 6,7 0 0 4 2 N 0,0
13.07.2018 03:00:00 8,4 7,0 0 0 4 2 N 0,0
13.07.2018 02:00:00 9,1 7,4 0 0 4 2 N -
13.07.2018 01:00:00 9,9 7,5 0 0 2 1 N 0,0
13.07.2018 00:00:00 11,0 7,7 0 0 4 2 N 0,0
12.07.2018 23:00:00 12,5 8,0 0 0 4 2 N 0,0
12.07.2018 22:00:00 14,5 8,7 2 1 5 3 NNE 0,0
12.07.2018 21:00:00 19,2 7,3 4 2 18 10 W 0,0
12.07.2018 20:00:00 21,6 6,3 5 3 21 11 SW -
12.07.2018 19:00:00 23,2 6,9 8 4 26 14 W 0,0
12.07.2018 18:00:00 23,7 6,5 8 4 26 14 SSW 0,0
12.07.2018 17:00:00 25,3 7,0 5 3 29 16 S 0,0
12.07.2018 16:00:00 25,9 9,3 8 4 26 14 S 0,0
12.07.2018 15:00:00 25,2 9,9 8 4 26 14 SSW 0,0
12.07.2018 14:00:00 24,0 11,0 8 4 26 14 SSW -
12.07.2018 13:00:00 22,9 10,0 5 3 26 14 SW 0,0
12.07.2018 12:00:00 21,3 8,2 9 5 18 10 W 0,0
12.07.2018 11:00:00 20,1 7,8 5 3 11 6 WSW 0,0
12.07.2018 10:00:00 15,4 8,2 2 1 5 3 S 0,0
12.07.2018 09:00:00 10,0 9,7 0 0 4 2 N 0,0
12.07.2018 08:00:00 6,9 6,5 0 0 5 3 N -
12.07.2018 07:00:00 6,6 6,2 0 0 4 2 N 0,0
12.07.2018 06:00:00 6,6 6,0 0 0 4 2 N 0,0
12.07.2018 05:00:00 7,0 6,3 0 0 4 2 N 0,0
12.07.2018 04:00:00 7,4 6,5 0 0 2 1 N 0,0
12.07.2018 03:00:00 8,1 6,9 0 0 4 2 N 0,0
12.07.2018 02:00:00 8,8 7,2 0 0 4 2 N -
12.07.2018 01:00:00 9,8 7,6 2 1 4 2 E 0,0
12.07.2018 00:00:00 11,0 7,7 0 0 0 0 N 0,0
11.07.2018 23:00:00 12,9 7,8 0 0 4 2 N 0,0
11.07.2018 22:00:00 15,1 7,1 0 0 9 5 N 0,0
11.07.2018 21:00:00 18,4 6,6 4 2 16 9 SSW 0,0
11.07.2018 20:00:00 20,0 7,4 4 2 18 10 S -
11.07.2018 19:00:00 21,5 7,0 5 3 24 13 WSW 0,0
11.07.2018 18:00:00 23,7 6,9 9 5 24 13 WSW 0,0
11.07.2018 17:00:00 24,9 7,5 9 5 24 13 SW 0,0
11.07.2018 16:00:00 24,9 7,5 8 4 26 14 SW 0,0
11.07.2018 15:00:00 24,6 8,1 8 4 26 14 SW 0,0
11.07.2018 14:00:00 23,8 8,6 8 4 22 12 SSW -
11.07.2018 13:00:00 22,5 8,6 5 3 26 14 SW 0,0
11.07.2018 12:00:00 21,4 9,6 5 3 21 11 SW 0,0
11.07.2018 11:00:00 19,4 9,0 8 4 16 9 W 0,0
11.07.2018 10:00:00 16,1 9,5 2 1 8 4 SSE 0,0
11.07.2018 09:00:00 12,4 10,8 0 0 5 3 N 0,0
11.07.2018 08:00:00 9,2 8,4 0 0 4 2 N -
11.07.2018 07:00:00 9,2 8,3 2 1 4 2 E 0,0
11.07.2018 06:00:00 9,9 8,5 0 0 4 2 N 0,0
11.07.2018 05:00:00 11,5 8,9 0 0 5 3 N 0,0
11.07.2018 04:00:00 13,8 8,8 0 0 8 4 N 0,0
11.07.2018 03:00:00 14,7 9,3 0 0 8 4 N 0,0
11.07.2018 02:00:00 15,8 9,0 2 1 11 6 W -
11.07.2018 01:00:00 16,5 8,7 4 2 13 7 WSW 0,0
11.07.2018 00:00:00 17,7 8,3 5 3 16 9 SW 0,0

tt = temperature
td = dewpoint
ff = wind speed
fx = gusts
dd = wind direction
rr = precipitation

Next stations